createdAt,value
2018-05-08T00:02:17.552Z,6.40
2018-05-08T00:04:45.087Z,6.47
2018-05-08T00:07:12.596Z,6.30
2018-05-08T00:09:40.951Z,6.87
2018-05-08T00:12:09.238Z,6.20
2018-05-08T00:14:37.548Z,6.10
2018-05-08T00:17:05.115Z,5.93
2018-05-08T00:19:32.663Z,5.90
2018-05-08T00:22:00.177Z,5.63
2018-05-08T00:24:27.705Z,6.20
2018-05-08T00:26:55.221Z,5.97
2018-05-08T00:29:23.534Z,5.90
2018-05-08T00:31:51.069Z,6.13
2018-05-08T00:34:19.370Z,6.50
2018-05-08T00:36:46.890Z,6.43
2018-05-08T00:39:15.263Z,6.27
2018-05-08T00:41:42.776Z,6.30
2018-05-08T00:44:10.333Z,6.47
2018-05-08T00:46:37.869Z,6.07
2018-05-08T00:49:05.385Z,5.87
2018-05-08T00:51:32.921Z,5.80
2018-05-08T00:54:01.197Z,6.10
2018-05-08T00:56:28.738Z,6.03
2018-05-08T00:58:56.273Z,6.57
2018-05-08T01:01:24.576Z,5.67
2018-05-08T01:03:52.849Z,5.90
2018-05-08T01:06:21.157Z,6.10
2018-05-08T01:08:48.669Z,6.23
2018-05-08T01:11:16.221Z,6.53
2018-05-08T01:13:44.490Z,6.30
2018-05-08T01:16:12.770Z,6.27
2018-05-08T01:18:40.318Z,6.23
2018-05-08T01:21:08.597Z,6.33
2018-05-08T01:23:36.896Z,6.47
2018-05-08T01:26:04.428Z,6.40
2018-05-08T01:28:32.751Z,6.87
2018-05-08T01:31:00.266Z,6.27
2018-05-08T01:33:28.566Z,6.60
2018-05-08T01:35:56.851Z,6.67
2018-05-08T01:38:24.386Z,5.70
2018-05-08T01:40:52.670Z,6.80
2018-05-08T01:43:20.249Z,6.80
2018-05-08T01:45:47.761Z,6.23
2018-05-08T01:48:15.301Z,6.17
2018-05-08T01:50:42.807Z,6.23
2018-05-08T01:53:11.106Z,6.33
2018-05-08T01:55:38.609Z,6.77
2018-05-08T01:58:06.148Z,6.13
2018-05-08T02:00:33.658Z,6.10
2018-05-08T02:03:02.939Z,6.60
2018-05-08T02:05:30.474Z,6.43
2018-05-08T02:07:57.986Z,6.70
2018-05-08T02:10:26.286Z,6.37
2018-05-08T02:12:53.857Z,6.87
2018-05-08T02:15:21.369Z,6.33
2018-05-08T02:17:49.646Z,7.13
2018-05-08T02:20:18.016Z,6.87
2018-05-08T02:22:45.582Z,7.20
2018-05-08T02:25:13.886Z,6.67
2018-05-08T02:27:41.402Z,6.50
2018-05-08T02:30:08.951Z,6.27
2018-05-08T02:32:36.470Z,6.60
2018-05-08T02:35:04.768Z,6.33
2018-05-08T02:37:32.396Z,6.90
2018-05-08T02:39:59.913Z,6.50
2018-05-08T02:42:27.426Z,6.07
2018-05-08T02:44:54.953Z,6.63
2018-05-08T02:47:23.229Z,5.97
2018-05-08T02:49:50.833Z,6.17
2018-05-08T02:52:19.055Z,5.93
2018-05-08T02:54:46.565Z,5.90
2018-05-08T02:57:14.104Z,5.80
2018-05-08T02:59:41.626Z,6.03
2018-05-08T03:02:09.943Z,5.90
2018-05-08T03:04:37.459Z,5.40
2018-05-08T03:07:05.000Z,5.77
2018-05-08T03:09:32.517Z,6.03
2018-05-08T03:12:00.046Z,5.57
2018-05-08T03:14:28.337Z,5.27
2018-05-08T03:16:56.671Z,5.50
2018-05-08T03:19:24.180Z,5.43
2018-05-08T03:21:52.478Z,5.10
2018-05-08T03:24:19.980Z,5.53
2018-05-08T03:26:48.402Z,5.73
2018-05-08T03:29:15.962Z,5.57
2018-05-08T03:31:43.491Z,5.37
2018-05-08T03:34:11.034Z,5.87
2018-05-08T03:36:38.546Z,6.17
2018-05-08T03:39:06.093Z,6.07
2018-05-08T03:41:34.373Z,6.37
2018-05-08T03:44:01.926Z,6.20
2018-05-08T03:46:30.238Z,6.10
2018-05-08T03:48:57.869Z,6.37
2018-05-08T03:51:25.377Z,6.07
2018-05-08T03:53:52.944Z,6.37
2018-05-08T03:56:20.444Z,6.50
2018-05-08T03:58:49.098Z,6.20
2018-05-08T04:01:28.245Z,6.13
2018-05-08T04:04:08.250Z,5.97
2018-05-08T04:09:34.940Z,5.90
2018-05-08T04:12:02.463Z,6.07
2018-05-08T04:14:30.010Z,6.70
2018-05-08T04:16:57.583Z,6.97
2018-05-08T04:19:25.141Z,6.23
2018-05-08T04:21:52.657Z,6.90
2018-05-08T04:24:20.958Z,5.63
2018-05-08T04:26:48.515Z,6.03
2018-05-08T04:29:16.081Z,6.77
2018-05-08T04:31:43.589Z,6.23
2018-05-08T04:34:11.129Z,6.17
2018-05-08T04:36:39.459Z,6.10
2018-05-08T04:39:07.760Z,6.33
2018-05-08T04:41:35.282Z,6.47
2018-05-08T04:44:03.597Z,5.77
2018-05-08T04:46:31.624Z,6.00
2018-05-08T04:48:59.171Z,6.10
2018-05-08T04:51:26.701Z,7.70
2018-05-08T04:53:54.280Z,8.33
2018-05-08T04:56:21.790Z,7.10
2018-05-08T04:58:49.334Z,8.03
2018-05-08T05:03:54.506Z,7.30
2018-05-08T05:06:22.025Z,7.23
2018-05-08T05:08:49.546Z,7.00
2018-05-08T05:11:17.095Z,7.00
2018-05-08T05:13:44.615Z,7.50
2018-05-08T05:16:13.321Z,6.93
2018-05-08T05:18:40.846Z,6.70
2018-05-08T05:21:08.381Z,6.93
2018-05-08T05:23:35.900Z,6.60
2018-05-08T05:26:03.479Z,6.07
2018-05-08T05:28:31.071Z,6.40
2018-05-08T05:30:58.605Z,6.17
2018-05-08T05:33:26.143Z,7.03
2018-05-08T05:35:53.682Z,7.17
2018-05-08T05:38:21.200Z,7.00
2018-05-08T05:40:48.874Z,7.17
2018-05-08T05:43:16.409Z,7.00
2018-05-08T05:45:44.699Z,7.07
2018-05-08T05:48:12.234Z,7.77
2018-05-08T05:50:39.761Z,7.33
2018-05-08T05:53:08.137Z,6.80
2018-05-08T05:55:36.413Z,6.70
2018-05-08T05:58:03.949Z,6.80
2018-05-08T06:00:31.470Z,6.60
2018-05-08T06:02:59.001Z,7.27
2018-05-08T06:05:26.521Z,6.73
2018-05-08T06:07:54.053Z,7.30
2018-05-08T06:10:21.584Z,6.33
2018-05-08T06:12:49.166Z,6.90
2018-05-08T06:15:16.705Z,5.60
2018-05-08T06:17:44.249Z,6.53
2018-05-08T06:20:12.521Z,6.37
2018-05-08T06:22:40.063Z,6.10
2018-05-08T06:25:07.593Z,6.60
2018-05-08T06:27:35.128Z,6.10
2018-05-08T06:30:03.436Z,5.93
2018-05-08T06:32:30.957Z,5.80
2018-05-08T06:34:58.505Z,6.20
2018-05-08T06:37:26.865Z,6.60
2018-05-08T06:39:55.181Z,6.90
2018-05-08T06:42:22.771Z,5.90
2018-05-08T06:44:50.396Z,6.43
2018-05-08T06:47:17.936Z,5.97
2018-05-08T06:49:46.225Z,6.63
2018-05-08T06:52:14.521Z,7.23
2018-05-08T06:54:42.033Z,5.30
2018-05-08T06:57:09.576Z,6.80
2018-05-08T06:59:37.117Z,5.83
2018-05-08T07:02:04.633Z,5.47
2018-05-08T07:04:32.965Z,6.30
2018-05-08T07:07:00.482Z,6.30
2018-05-08T07:09:28.765Z,6.50
2018-05-08T07:11:56.352Z,5.90
2018-05-08T07:14:23.862Z,5.63
2018-05-08T07:16:52.214Z,6.23
2018-05-08T07:19:19.726Z,5.83
2018-05-08T07:21:47.298Z,6.00
2018-05-08T07:24:15.606Z,5.67
2018-05-08T07:26:43.149Z,5.90
2018-05-08T07:29:10.681Z,6.33
2018-05-08T07:31:38.965Z,5.87
2018-05-08T07:34:06.501Z,6.30
2018-05-08T07:36:34.020Z,6.33
2018-05-08T07:39:01.559Z,5.87
2018-05-08T07:41:29.133Z,6.57
2018-05-08T07:43:57.466Z,6.63
2018-05-08T07:46:24.976Z,7.20
2018-05-08T07:48:52.513Z,6.73
2018-05-08T07:51:20.019Z,5.97
2018-05-08T07:53:48.337Z,6.07
2018-05-08T07:56:15.855Z,5.83
2018-05-08T07:58:44.189Z,7.20
2018-05-08T08:01:11.749Z,6.60
2018-05-08T08:03:39.554Z,6.30
2018-05-08T08:06:07.118Z,6.47
2018-05-08T08:08:35.425Z,6.57
2018-05-08T08:11:02.966Z,6.37
2018-05-08T08:13:30.495Z,5.93
2018-05-08T08:15:58.040Z,6.00
2018-05-08T08:18:25.562Z,6.20
2018-05-08T08:20:53.894Z,6.63
2018-05-08T08:23:21.402Z,5.47
2018-05-08T08:25:48.951Z,5.90
2018-05-08T08:28:16.529Z,6.10
2018-05-08T08:30:44.045Z,6.37
2018-05-08T08:33:12.352Z,5.93
2018-05-08T08:35:39.872Z,5.70
2018-05-08T08:38:08.222Z,5.70
2018-05-08T08:40:35.729Z,5.57
2018-05-08T08:43:04.055Z,6.17
2018-05-08T08:45:31.609Z,6.23
2018-05-08T08:47:59.129Z,5.73
2018-05-08T08:50:26.667Z,5.27
2018-05-08T08:52:54.210Z,6.17
2018-05-08T08:55:21.737Z,5.40
2018-05-08T08:57:49.287Z,6.10
2018-05-08T09:00:16.830Z,6.10
2018-05-08T09:02:44.361Z,5.20
2018-05-08T09:05:12.654Z,5.30
2018-05-08T09:07:40.962Z,5.90
2018-05-08T09:10:08.470Z,6.23
2018-05-08T09:12:35.993Z,5.57
2018-05-08T09:15:03.508Z,5.30
2018-05-08T09:17:31.815Z,5.40
2018-05-08T09:19:59.369Z,5.93
2018-05-08T09:22:27.013Z,5.57
2018-05-08T09:24:55.290Z,5.83
2018-05-08T09:27:22.955Z,6.53
2018-05-08T09:29:50.673Z,5.37
2018-05-08T09:32:18.205Z,5.37
2018-05-08T09:34:45.737Z,6.10
2018-05-08T09:37:13.255Z,6.00
2018-05-08T09:39:40.854Z,6.22
2018-05-08T09:44:34.664Z,5.53
2018-05-08T09:47:02.173Z,6.37
2018-05-08T09:49:29.704Z,5.95
2018-05-08T09:51:57.213Z,6.60
2018-05-08T09:54:25.524Z,6.57
2018-05-08T09:56:53.307Z,6.57
2018-05-08T09:59:20.906Z,5.30
2018-05-08T10:01:48.457Z,6.25
2018-05-08T10:04:16.825Z,6.72
2018-05-08T10:06:45.223Z,7.72
2018-05-08T10:09:12.725Z,6.68
2018-05-08T10:11:40.274Z,6.62
2018-05-08T10:14:07.809Z,7.05
2018-05-08T10:16:35.373Z,6.93
2018-05-08T10:19:02.905Z,7.40
2018-05-08T10:21:30.412Z,7.25
2018-05-08T10:23:57.953Z,7.03
2018-05-08T10:26:25.491Z,6.45
2018-05-08T10:28:53.845Z,7.00
2018-05-08T10:31:21.399Z,7.93
2018-05-08T10:33:48.950Z,6.00
2018-05-08T10:36:16.504Z,8.05
2018-05-08T10:38:44.043Z,6.85
2018-05-08T10:41:11.566Z,6.00
2018-05-08T10:43:39.866Z,5.82
2018-05-08T10:46:07.474Z,5.28
2018-05-08T10:48:35.025Z,6.07
2018-05-08T10:51:02.543Z,5.62
2018-05-08T10:53:30.857Z,6.60
2018-05-08T10:55:58.396Z,6.37
2018-05-08T10:58:25.959Z,7.90
2018-05-08T11:00:53.688Z,6.72
2018-05-08T11:03:21.982Z,6.25
2018-05-08T11:05:49.560Z,7.43
2018-05-08T11:08:17.498Z,7.55
2018-05-08T11:10:45.799Z,6.22
2018-05-08T11:13:13.318Z,5.70
2018-05-08T11:15:40.910Z,5.10
2018-05-08T11:18:08.431Z,6.18
2018-05-08T11:20:36.004Z,5.28
2018-05-08T11:23:04.305Z,4.97
2018-05-08T11:25:31.866Z,6.60
2018-05-08T11:27:59.388Z,5.15
2018-05-08T11:30:26.982Z,5.30
2018-05-08T11:32:54.541Z,4.85
2018-05-08T11:35:22.085Z,4.93
2018-05-08T11:37:50.412Z,5.00
2018-05-08T11:40:17.946Z,5.25
2018-05-08T11:42:45.455Z,4.53
2018-05-08T11:45:12.973Z,4.93
2018-05-08T11:47:40.506Z,4.75
2018-05-08T11:50:08.047Z,4.80
2018-05-08T11:52:35.577Z,4.55
2018-05-08T11:55:03.139Z,4.87
2018-05-08T11:57:30.700Z,4.07
2018-05-08T11:59:58.214Z,4.57
2018-05-08T12:02:25.760Z,4.30
2018-05-08T12:04:54.046Z,5.03
2018-05-08T12:07:21.596Z,4.20
2018-05-08T12:09:49.901Z,3.83
2018-05-08T12:12:17.417Z,4.93
2018-05-08T12:14:45.739Z,3.87
2018-05-08T12:17:13.275Z,4.32
2018-05-08T12:19:41.590Z,4.60
2018-05-08T12:22:09.093Z,4.22
2018-05-08T12:24:37.402Z,3.75
2018-05-08T12:27:04.922Z,3.75
2018-05-08T12:29:32.466Z,4.20
2018-05-08T12:32:00.000Z,4.00
2018-05-08T12:34:27.559Z,4.43
2018-05-08T12:36:55.146Z,4.68
2018-05-08T12:39:22.715Z,3.97
2018-05-08T12:41:50.247Z,4.28
2018-05-08T12:44:17.787Z,4.40
2018-05-08T12:46:45.341Z,4.72
2018-05-08T12:49:12.850Z,4.07
2018-05-08T12:51:40.421Z,3.80
2018-05-08T12:54:08.702Z,4.25
2018-05-08T12:56:37.007Z,4.25
2018-05-08T12:59:04.633Z,3.50
2018-05-08T13:01:32.916Z,3.90
2018-05-08T13:04:00.485Z,3.83
2018-05-08T13:06:28.807Z,4.18
2018-05-08T13:08:56.424Z,4.28
2018-05-08T13:11:24.731Z,3.90
2018-05-08T13:13:52.266Z,4.30
2018-05-08T13:16:20.569Z,4.93
2018-05-08T13:18:48.129Z,4.32
2018-05-08T13:21:15.667Z,4.70
2018-05-08T13:23:44.009Z,4.30
2018-05-08T13:26:11.529Z,3.97
2018-05-08T13:28:39.068Z,4.30
2018-05-08T13:31:06.704Z,3.80
2018-05-08T13:33:34.184Z,3.80
2018-05-08T13:36:02.479Z,4.57
2018-05-08T13:38:30.081Z,4.12
2018-05-08T13:40:57.625Z,4.40
2018-05-08T13:43:25.170Z,4.07
2018-05-08T13:45:53.478Z,3.75
2018-05-08T13:48:21.001Z,3.78
2018-05-08T13:50:49.314Z,4.05
2018-05-08T13:53:16.826Z,4.00
2018-05-08T13:55:44.372Z,3.70
2018-05-08T13:58:12.651Z,3.67
2018-05-08T14:00:40.218Z,3.70
2018-05-08T14:03:09.296Z,3.30
2018-05-08T14:05:37.671Z,3.90
2018-05-08T14:08:07.318Z,3.80
2018-05-08T14:10:34.886Z,3.92
2018-05-08T14:13:02.472Z,4.00
2018-05-08T14:15:30.029Z,4.18
2018-05-08T14:17:57.496Z,4.05
2018-05-08T14:20:25.033Z,4.20
2018-05-08T14:22:52.573Z,4.05
2018-05-08T14:25:21.050Z,3.65
2018-05-08T14:27:48.564Z,3.62
2018-05-08T14:30:16.861Z,3.15
2018-05-08T14:32:45.165Z,3.30
2018-05-08T14:35:12.696Z,3.62
2018-05-08T14:37:41.013Z,3.37
2018-05-08T14:40:08.535Z,3.65
2018-05-08T14:42:36.876Z,3.22
2018-05-08T14:45:04.417Z,3.60
2018-05-08T14:47:31.965Z,3.45
2018-05-08T14:50:00.244Z,3.72
2018-05-08T14:52:27.792Z,4.28
2018-05-08T14:54:55.330Z,3.60
2018-05-08T14:57:22.850Z,3.58
2018-05-08T14:59:50.402Z,3.78
2018-05-08T15:02:17.929Z,3.45
2018-05-08T15:04:45.454Z,4.03
2018-05-08T15:07:13.741Z,3.50
2018-05-08T15:09:41.298Z,3.42
2018-05-08T15:12:08.870Z,3.58
2018-05-08T15:14:36.407Z,3.62
2018-05-08T15:17:04.680Z,3.70
2018-05-08T15:19:33.007Z,3.50
2018-05-08T15:22:00.554Z,3.12
2018-05-08T15:24:28.137Z,3.65
2018-05-08T15:26:55.650Z,3.67
2018-05-08T15:29:23.243Z,3.95
2018-05-08T15:31:50.769Z,3.58
2018-05-08T15:34:19.104Z,3.72
2018-05-08T15:36:46.700Z,4.03
2018-05-08T15:39:14.989Z,3.80
2018-05-08T15:41:42.549Z,3.92
2018-05-08T15:44:10.818Z,3.67
2018-05-08T15:46:39.116Z,3.80
2018-05-08T15:49:07.402Z,4.00
2018-05-08T15:51:34.945Z,3.85
2018-05-08T15:54:02.463Z,3.58
2018-05-08T15:56:30.026Z,3.78
2018-05-08T15:58:57.577Z,3.60
2018-05-08T16:01:25.122Z,3.58
2018-05-08T16:03:52.631Z,3.72
2018-05-08T16:06:20.908Z,4.12
2018-05-08T16:08:49.221Z,3.92
2018-05-08T16:11:16.763Z,3.47
2018-05-08T16:13:44.308Z,2.90
2018-05-08T16:16:11.825Z,3.17
2018-05-08T16:18:39.391Z,3.30
2018-05-08T16:21:06.905Z,3.60
2018-05-08T16:23:34.459Z,3.03
2018-05-08T16:26:01.977Z,3.10
2018-05-08T16:28:29.563Z,3.20
2018-05-08T16:30:57.854Z,3.10
2018-05-08T16:33:25.399Z,3.10
2018-05-08T16:35:52.920Z,2.60
2018-05-08T16:38:20.463Z,2.53
2018-05-08T16:40:47.988Z,2.60
2018-05-08T16:43:15.525Z,2.60
2018-05-08T16:45:43.828Z,3.10
2018-05-08T16:48:12.133Z,2.60
2018-05-08T16:50:39.679Z,2.60
2018-05-08T16:53:07.222Z,2.45
2018-05-08T16:55:34.774Z,2.37
2018-05-08T16:58:02.289Z,2.12
2018-05-08T17:00:30.579Z,2.22
2018-05-08T17:02:58.146Z,2.20
2018-05-08T17:05:26.477Z,2.40
2018-05-08T17:07:54.022Z,2.50
2018-05-08T17:10:21.590Z,2.30
2018-05-08T17:12:49.838Z,2.05
2018-05-08T17:15:17.422Z,2.20
2018-05-08T17:17:44.954Z,2.30
2018-05-08T17:20:13.226Z,2.10
2018-05-08T17:22:41.528Z,2.08
2018-05-08T17:25:09.889Z,1.90
2018-05-08T17:27:37.493Z,1.80
2018-05-08T17:30:05.039Z,2.00
2018-05-08T17:32:32.564Z,1.98
2018-05-08T17:35:01.191Z,1.98
2018-05-08T17:37:28.817Z,2.03
2018-05-08T17:39:56.362Z,2.53
2018-05-08T17:42:24.682Z,1.70
2018-05-08T17:44:52.229Z,1.65
2018-05-08T17:47:20.520Z,1.93
2018-05-08T17:49:48.064Z,1.67
2018-05-08T17:52:16.374Z,1.80
2018-05-08T17:54:44.667Z,2.10
2018-05-08T17:57:12.969Z,1.80
2018-05-08T17:59:41.276Z,1.80
2018-05-08T18:02:08.826Z,1.80
2018-05-08T18:04:36.362Z,1.70
2018-05-08T18:07:04.659Z,1.90
2018-05-08T18:09:32.224Z,2.17
2018-05-08T18:11:59.818Z,1.80
2018-05-08T18:14:27.375Z,1.40
2018-05-08T18:16:54.955Z,1.63
2018-05-08T18:19:22.509Z,1.70
2018-05-08T18:21:50.026Z,1.50
2018-05-08T18:24:18.337Z,1.80
2018-05-08T18:26:46.615Z,1.70
2018-05-08T18:29:14.218Z,1.60
2018-05-08T18:31:41.805Z,1.70
2018-05-08T18:34:09.323Z,1.90
2018-05-08T18:36:37.873Z,1.40
2018-05-08T18:39:05.410Z,1.53
2018-05-08T18:41:33.118Z,1.90
2018-05-08T18:44:00.670Z,1.77
2018-05-08T18:46:28.961Z,1.53
2018-05-08T18:48:57.241Z,1.77
2018-05-08T18:51:25.539Z,1.60
2018-05-08T18:53:53.969Z,1.90
2018-05-08T18:56:21.489Z,2.20
2018-05-08T18:58:49.077Z,1.50
2018-05-08T19:01:16.650Z,2.00
2018-05-08T19:03:44.205Z,1.90
2018-05-08T19:06:11.753Z,1.97
2018-05-08T19:08:39.295Z,2.03
2018-05-08T19:11:12.363Z,2.00
2018-05-08T19:13:40.726Z,1.83
2018-05-08T19:16:09.023Z,2.30
2018-05-08T19:18:42.201Z,2.00
2018-05-08T19:21:09.710Z,1.93
2018-05-08T19:23:37.269Z,2.10
2018-05-08T19:26:04.794Z,2.00
2018-05-08T19:28:38.795Z,1.97
2018-05-08T19:31:07.064Z,2.50
2018-05-08T19:33:36.168Z,2.47
2018-05-08T19:39:04.725Z,2.30
2018-05-08T19:41:32.987Z,1.73
2018-05-08T19:44:00.543Z,1.90
2018-05-08T19:46:28.846Z,1.80
2018-05-08T19:48:56.427Z,1.90
2018-05-08T19:51:23.997Z,1.80
2018-05-08T19:53:52.344Z,1.93
2018-05-08T19:56:19.900Z,1.90
2018-05-08T19:58:48.225Z,2.00
2018-05-08T20:01:15.773Z,1.70
2018-05-08T20:03:44.045Z,1.90
2018-05-08T20:06:12.369Z,1.73
2018-05-08T20:08:39.893Z,1.73
2018-05-08T20:11:07.441Z,1.70
2018-05-08T20:13:35.001Z,2.00
2018-05-08T20:16:03.326Z,2.03
2018-05-08T20:18:31.840Z,1.90
2018-05-08T20:20:59.441Z,2.10
2018-05-08T20:23:27.707Z,2.20
2018-05-08T20:25:56.041Z,2.57
2018-05-08T20:28:23.576Z,2.00
2018-05-08T20:30:51.095Z,2.53
2018-05-08T20:33:20.187Z,2.57
2018-05-08T20:35:48.471Z,2.47
2018-05-08T20:38:16.041Z,2.40
2018-05-08T20:40:44.322Z,2.63
2018-05-08T20:43:11.933Z,2.60
2018-05-08T20:45:39.480Z,2.43
2018-05-08T20:48:07.106Z,2.40
2018-05-08T20:50:34.652Z,2.17
2018-05-08T20:53:02.961Z,2.60
2018-05-08T20:55:30.542Z,2.40
2018-05-08T20:57:58.077Z,2.67
2018-05-08T21:00:25.639Z,2.43
2018-05-08T21:02:53.186Z,2.40
2018-05-08T21:05:20.740Z,2.27
2018-05-08T21:07:48.270Z,2.27
2018-05-08T21:10:15.877Z,2.57
2018-05-08T21:12:43.402Z,2.53
2018-05-08T21:15:10.973Z,2.30
2018-05-08T21:17:39.342Z,2.37
2018-05-08T21:20:07.589Z,2.23
2018-05-08T21:22:35.117Z,2.17
2018-05-08T21:25:02.671Z,2.43
2018-05-08T21:27:36.705Z,2.47
2018-05-08T21:30:09.835Z,2.37
2018-05-08T21:32:38.162Z,2.47
2018-05-08T21:35:05.840Z,2.50
2018-05-08T21:37:33.381Z,2.47
2018-05-08T21:40:00.897Z,2.40
2018-05-08T21:42:29.234Z,2.63
2018-05-08T21:44:56.762Z,2.13
2018-05-08T21:47:25.098Z,2.60
2018-05-08T21:49:52.633Z,2.37
2018-05-08T21:52:20.145Z,2.60
2018-05-08T21:54:47.691Z,2.77
2018-05-08T21:57:16.005Z,2.30
2018-05-08T21:59:44.094Z,2.53
2018-05-08T22:02:11.646Z,2.60
2018-05-08T22:04:39.189Z,2.30
2018-05-08T22:07:06.716Z,2.77
2018-05-08T22:09:35.025Z,2.87
2018-05-08T22:12:02.534Z,2.60
2018-05-08T22:14:30.050Z,2.63
2018-05-08T22:16:57.600Z,2.33
2018-05-08T22:19:25.134Z,2.30
2018-05-08T22:21:53.459Z,2.60
2018-05-08T22:24:20.981Z,2.70
2018-05-08T22:26:48.519Z,2.50
2018-05-08T22:29:16.932Z,2.50
2018-05-08T22:31:44.450Z,2.50
2018-05-08T22:34:11.990Z,2.50
2018-05-08T22:36:39.514Z,2.50
2018-05-08T22:39:07.053Z,2.60
2018-05-08T22:41:35.375Z,2.53
2018-05-08T22:44:02.882Z,2.53
2018-05-08T22:46:31.157Z,2.60
2018-05-08T22:48:59.463Z,2.70
2018-05-08T22:51:26.997Z,2.70
2018-05-08T22:53:55.295Z,3.17
2018-05-08T22:56:22.808Z,2.83
2018-05-08T22:58:50.348Z,2.93
2018-05-08T23:01:17.883Z,2.97
2018-05-08T23:03:45.412Z,2.70
2018-05-08T23:06:13.694Z,2.97
2018-05-08T23:08:41.293Z,2.97
2018-05-08T23:11:09.521Z,2.90
2018-05-08T23:13:37.838Z,2.77
2018-05-08T23:16:05.361Z,2.80
2018-05-08T23:18:33.662Z,2.53
2018-05-08T23:21:01.194Z,3.00
2018-05-08T23:23:29.475Z,2.73
2018-05-08T23:25:57.779Z,2.73
2018-05-08T23:28:25.297Z,2.97
2018-05-08T23:30:53.589Z,2.90
2018-05-08T23:33:22.646Z,2.93
2018-05-08T23:35:50.196Z,3.07
2018-05-08T23:38:17.702Z,2.90
2018-05-08T23:40:46.006Z,3.13
2018-05-08T23:43:13.529Z,3.03
2018-05-08T23:45:41.830Z,3.00
2018-05-08T23:48:09.337Z,3.30
2018-05-08T23:50:36.864Z,3.33
2018-05-08T23:53:04.385Z,3.23
2018-05-08T23:55:32.690Z,3.30
2018-05-08T23:58:00.206Z,3.70
